sensor_id;sensor_type;location;lat;lon;timestamp;P1;durP1;ratioP1;P2;durP2;ratioP2
23282;SDS011;11810;51.178;3.878;2022-07-22T00:01:51;14.93;;;5.47;;
23282;SDS011;11810;51.178;3.878;2022-07-22T00:04:17;16.75;;;5.88;;
23282;SDS011;11810;51.178;3.878;2022-07-22T00:06:43;19.40;;;5.78;;
23282;SDS011;11810;51.178;3.878;2022-07-22T00:09:09;16.42;;;5.28;;
23282;SDS011;11810;51.178;3.878;2022-07-22T00:11:35;11.85;;;4.65;;
23282;SDS011;11810;51.178;3.878;2022-07-22T00:14:01;15.60;;;4.80;;
23282;SDS011;11810;51.178;3.878;2022-07-22T00:16:27;11.95;;;5.07;;
23282;SDS011;11810;51.178;3.878;2022-07-22T00:18:53;9.88;;;4.35;;
23282;SDS011;11810;51.178;3.878;2022-07-22T00:21:19;12.45;;;4.60;;
23282;SDS011;11810;51.178;3.878;2022-07-22T00:23:45;10.10;;;4.75;;
23282;SDS011;11810;51.178;3.878;2022-07-22T00:26:11;10.90;;;4.70;;
23282;SDS011;11810;51.178;3.878;2022-07-22T00:28:37;15.60;;;5.18;;
23282;SDS011;11810;51.178;3.878;2022-07-22T00:31:03;15.70;;;4.88;;
23282;SDS011;11810;51.178;3.878;2022-07-22T00:33:30;17.55;;;5.22;;
23282;SDS011;11810;51.178;3.878;2022-07-22T00:35:57;12.70;;;4.85;;
23282;SDS011;11810;51.178;3.878;2022-07-22T00:38:23;21.80;;;4.80;;
23282;SDS011;11810;51.178;3.878;2022-07-22T00:40:48;16.55;;;5.15;;
23282;SDS011;11810;51.178;3.878;2022-07-22T00:43:14;17.58;;;5.22;;
23282;SDS011;11810;51.178;3.878;2022-07-22T00:45:40;12.93;;;5.38;;
23282;SDS011;11810;51.178;3.878;2022-07-22T00:48:06;13.43;;;5.47;;
23282;SDS011;11810;51.178;3.878;2022-07-22T00:50:32;16.27;;;5.22;;
23282;SDS011;11810;51.178;3.878;2022-07-22T00:52:58;15.27;;;4.78;;
23282;SDS011;11810;51.178;3.878;2022-07-22T00:55:24;18.25;;;6.88;;
23282;SDS011;11810;51.178;3.878;2022-07-22T00:57:51;18.25;;;6.57;;
23282;SDS011;11810;51.178;3.878;2022-07-22T01:00:18;18.40;;;5.00;;
23282;SDS011;11810;51.178;3.878;2022-07-22T01:02:46;14.52;;;5.95;;
23282;SDS011;11810;51.178;3.878;2022-07-22T01:05:12;15.95;;;5.85;;
23282;SDS011;11810;51.178;3.878;2022-07-22T01:07:38;11.35;;;5.45;;
23282;SDS011;11810;51.178;3.878;2022-07-22T01:10:05;14.32;;;5.05;;
23282;SDS011;11810;51.178;3.878;2022-07-22T01:12:31;15.35;;;5.72;;
23282;SDS011;11810;51.178;3.878;2022-07-22T01:14:57;13.10;;;5.28;;
23282;SDS011;11810;51.178;3.878;2022-07-22T01:17:23;14.20;;;6.18;;
23282;SDS011;11810;51.178;3.878;2022-07-22T01:19:49;19.75;;;5.93;;
23282;SDS011;11810;51.178;3.878;2022-07-22T01:22:15;9.95;;;4.88;;
23282;SDS011;11810;51.178;3.878;2022-07-22T01:24:41;12.57;;;4.60;;
23282;SDS011;11810;51.178;3.878;2022-07-22T01:27:07;9.02;;;4.72;;
23282;SDS011;11810;51.178;3.878;2022-07-22T01:29:33;10.63;;;4.57;;
23282;SDS011;11810;51.178;3.878;2022-07-22T01:31:59;13.63;;;4.50;;
23282;SDS011;11810;51.178;3.878;2022-07-22T01:34:25;14.88;;;5.05;;
23282;SDS011;11810;51.178;3.878;2022-07-22T01:36:51;15.43;;;5.93;;
23282;SDS011;11810;51.178;3.878;2022-07-22T01:39:17;15.77;;;5.07;;
23282;SDS011;11810;51.178;3.878;2022-07-22T01:41:43;12.63;;;4.93;;
23282;SDS011;11810;51.178;3.878;2022-07-22T01:44:09;13.93;;;5.60;;
23282;SDS011;11810;51.178;3.878;2022-07-22T01:46:35;13.63;;;5.82;;
23282;SDS011;11810;51.178;3.878;2022-07-22T01:49:02;15.05;;;5.63;;
23282;SDS011;11810;51.178;3.878;2022-07-22T01:51:27;17.88;;;5.68;;
23282;SDS011;11810;51.178;3.878;2022-07-22T01:53:53;14.30;;;5.70;;
23282;SDS011;11810;51.178;3.878;2022-07-22T01:56:19;14.70;;;5.22;;
23282;SDS011;11810;51.178;3.878;2022-07-22T01:58:45;14.18;;;4.63;;
23282;SDS011;11810;51.178;3.878;2022-07-22T02:01:11;8.50;;;4.60;;
23282;SDS011;11810;51.178;3.878;2022-07-22T02:03:37;8.07;;;4.47;;
23282;SDS011;11810;51.178;3.878;2022-07-22T02:06:03;13.23;;;4.78;;
23282;SDS011;11810;51.178;3.878;2022-07-22T02:08:29;13.10;;;5.05;;
23282;SDS011;11810;51.178;3.878;2022-07-22T02:10:55;12.27;;;4.90;;
23282;SDS011;11810;51.178;3.878;2022-07-22T02:13:21;8.57;;;4.22;;
23282;SDS011;11810;51.178;3.878;2022-07-22T02:15:47;11.75;;;4.53;;
23282;SDS011;11810;51.178;3.878;2022-07-22T02:18:14;10.63;;;4.05;;
23282;SDS011;11810;51.178;3.878;2022-07-22T02:20:42;12.52;;;4.30;;
23282;SDS011;11810;51.178;3.878;2022-07-22T02:23:08;8.40;;;4.30;;
23282;SDS011;11810;51.178;3.878;2022-07-22T02:25:36;11.68;;;4.55;;
23282;SDS011;11810;51.178;3.878;2022-07-22T02:28:03;12.15;;;5.05;;
23282;SDS011;11810;51.178;3.878;2022-07-22T02:30:29;11.13;;;5.28;;
23282;SDS011;11810;51.178;3.878;2022-07-22T02:32:56;16.00;;;4.70;;
23282;SDS011;11810;51.178;3.878;2022-07-22T02:35:22;19.05;;;5.35;;
23282;SDS011;11810;51.178;3.878;2022-07-22T02:37:48;9.77;;;4.22;;
23282;SDS011;11810;51.178;3.878;2022-07-22T02:40:14;9.65;;;5.10;;
23282;SDS011;11810;51.178;3.878;2022-07-22T02:42:40;10.10;;;5.03;;
23282;SDS011;11810;51.178;3.878;2022-07-22T02:45:06;12.00;;;5.38;;
23282;SDS011;11810;51.178;3.878;2022-07-22T02:47:33;16.52;;;5.57;;
23282;SDS011;11810;51.178;3.878;2022-07-22T02:49:59;15.90;;;5.43;;
23282;SDS011;11810;51.178;3.878;2022-07-22T02:52:25;18.73;;;6.13;;
23282;SDS011;11810;51.178;3.878;2022-07-22T02:54:51;9.48;;;4.97;;
23282;SDS011;11810;51.178;3.878;2022-07-22T02:57:17;17.70;;;5.32;;
23282;SDS011;11810;51.178;3.878;2022-07-22T02:59:43;13.30;;;6.00;;
23282;SDS011;11810;51.178;3.878;2022-07-22T03:02:09;13.02;;;6.03;;
23282;SDS011;11810;51.178;3.878;2022-07-22T03:04:35;16.20;;;5.45;;
23282;SDS011;11810;51.178;3.878;2022-07-22T03:07:01;11.10;;;4.95;;
23282;SDS011;11810;51.178;3.878;2022-07-22T03:09:27;20.33;;;5.70;;
23282;SDS011;11810;51.178;3.878;2022-07-22T03:11:53;12.05;;;4.68;;
23282;SDS011;11810;51.178;3.878;2022-07-22T03:14:19;9.07;;;4.53;;
23282;SDS011;11810;51.178;3.878;2022-07-22T03:16:47;14.25;;;4.75;;
23282;SDS011;11810;51.178;3.878;2022-07-22T03:19:13;10.00;;;5.30;;
23282;SDS011;11810;51.178;3.878;2022-07-22T03:21:39;13.10;;;6.53;;
23282;SDS011;11810;51.178;3.878;2022-07-22T03:24:05;14.90;;;6.03;;
23282;SDS011;11810;51.178;3.878;2022-07-22T03:26:31;12.60;;;5.35;;
23282;SDS011;11810;51.178;3.878;2022-07-22T03:28:57;13.70;;;5.85;;
23282;SDS011;11810;51.178;3.878;2022-07-22T03:31:23;16.48;;;4.85;;
23282;SDS011;11810;51.178;3.878;2022-07-22T03:33:49;10.05;;;4.55;;
23282;SDS011;11810;51.178;3.878;2022-07-22T03:36:15;11.50;;;5.40;;
23282;SDS011;11810;51.178;3.878;2022-07-22T03:38:41;9.57;;;4.43;;
23282;SDS011;11810;51.178;3.878;2022-07-22T03:41:07;14.45;;;5.13;;
23282;SDS011;11810;51.178;3.878;2022-07-22T03:43:33;11.32;;;4.57;;
23282;SDS011;11810;51.178;3.878;2022-07-22T03:45:59;12.27;;;4.22;;
23282;SDS011;11810;51.178;3.878;2022-07-22T03:48:25;11.10;;;4.35;;
23282;SDS011;11810;51.178;3.878;2022-07-22T03:50:52;12.30;;;4.05;;
23282;SDS011;11810;51.178;3.878;2022-07-22T03:53:18;13.75;;;5.32;;
23282;SDS011;11810;51.178;3.878;2022-07-22T03:55:45;9.60;;;4.00;;
23282;SDS011;11810;51.178;3.878;2022-07-22T03:58:11;12.05;;;4.40;;
23282;SDS011;11810;51.178;3.878;2022-07-22T04:00:37;8.35;;;4.95;;
23282;SDS011;11810;51.178;3.878;2022-07-22T04:03:03;10.40;;;4.55;;
23282;SDS011;11810;51.178;3.878;2022-07-22T04:05:29;11.45;;;5.88;;
23282;SDS011;11810;51.178;3.878;2022-07-22T04:07:55;8.70;;;4.53;;
23282;SDS011;11810;51.178;3.878;2022-07-22T04:10:21;12.57;;;4.82;;
23282;SDS011;11810;51.178;3.878;2022-07-22T04:12:47;5.93;;;4.28;;
23282;SDS011;11810;51.178;3.878;2022-07-22T04:15:13;10.63;;;4.93;;
23282;SDS011;11810;51.178;3.878;2022-07-22T04:17:39;10.98;;;4.43;;
23282;SDS011;11810;51.178;3.878;2022-07-22T04:20:05;8.43;;;5.10;;
23282;SDS011;11810;51.178;3.878;2022-07-22T04:22:31;14.10;;;5.00;;
23282;SDS011;11810;51.178;3.878;2022-07-22T04:24:57;14.70;;;5.03;;
23282;SDS011;11810;51.178;3.878;2022-07-22T04:27:23;17.48;;;5.57;;
23282;SDS011;11810;51.178;3.878;2022-07-22T04:29:49;17.45;;;6.18;;
23282;SDS011;11810;51.178;3.878;2022-07-22T04:32:15;24.60;;;7.18;;
23282;SDS011;11810;51.178;3.878;2022-07-22T04:34:41;15.05;;;6.05;;
23282;SDS011;11810;51.178;3.878;2022-07-22T04:37:07;14.48;;;5.20;;
23282;SDS011;11810;51.178;3.878;2022-07-22T04:39:33;9.20;;;5.13;;
23282;SDS011;11810;51.178;3.878;2022-07-22T04:41:59;9.48;;;4.47;;
23282;SDS011;11810;51.178;3.878;2022-07-22T04:44:25;9.02;;;4.32;;
23282;SDS011;11810;51.178;3.878;2022-07-22T04:46:51;12.35;;;4.78;;
23282;SDS011;11810;51.178;3.878;2022-07-22T04:49:17;12.65;;;5.50;;
23282;SDS011;11810;51.178;3.878;2022-07-22T04:51:43;10.75;;;5.20;;
23282;SDS011;11810;51.178;3.878;2022-07-22T04:54:09;10.80;;;5.13;;
23282;SDS011;11810;51.178;3.878;2022-07-22T04:56:35;11.75;;;4.75;;
23282;SDS011;11810;51.178;3.878;2022-07-22T04:59:01;14.50;;;5.40;;
23282;SDS011;11810;51.178;3.878;2022-07-22T05:01:27;10.25;;;5.47;;
23282;SDS011;11810;51.178;3.878;2022-07-22T05:03:53;12.90;;;5.50;;
23282;SDS011;11810;51.178;3.878;2022-07-22T05:06:19;13.88;;;6.15;;
23282;SDS011;11810;51.178;3.878;2022-07-22T05:08:45;13.75;;;5.35;;
23282;SDS011;11810;51.178;3.878;2022-07-22T05:11:11;12.43;;;5.38;;
23282;SDS011;11810;51.178;3.878;2022-07-22T05:13:37;7.38;;;4.93;;
23282;SDS011;11810;51.178;3.878;2022-07-22T05:16:03;14.93;;;5.13;;
23282;SDS011;11810;51.178;3.878;2022-07-22T05:18:30;10.70;;;4.43;;
23282;SDS011;11810;51.178;3.878;2022-07-22T05:20:56;15.07;;;5.50;;
23282;SDS011;11810;51.178;3.878;2022-07-22T05:23:22;10.82;;;5.22;;
23282;SDS011;11810;51.178;3.878;2022-07-22T05:25:48;9.95;;;5.30;;
23282;SDS011;11810;51.178;3.878;2022-07-22T05:28:14;10.23;;;4.75;;
23282;SDS011;11810;51.178;3.878;2022-07-22T05:30:40;14.63;;;5.60;;
23282;SDS011;11810;51.178;3.878;2022-07-22T05:33:06;13.70;;;5.50;;
23282;SDS011;11810;51.178;3.878;2022-07-22T05:35:32;11.73;;;5.80;;
23282;SDS011;11810;51.178;3.878;2022-07-22T05:37:58;11.57;;;5.63;;
23282;SDS011;11810;51.178;3.878;2022-07-22T05:40:24;13.30;;;5.65;;
23282;SDS011;11810;51.178;3.878;2022-07-22T05:42:50;14.43;;;4.90;;
23282;SDS011;11810;51.178;3.878;2022-07-22T05:45:15;9.27;;;5.18;;
23282;SDS011;11810;51.178;3.878;2022-07-22T05:47:41;12.13;;;5.03;;
23282;SDS011;11810;51.178;3.878;2022-07-22T05:50:08;11.55;;;5.50;;
23282;SDS011;11810;51.178;3.878;2022-07-22T05:52:37;14.50;;;4.90;;
23282;SDS011;11810;51.178;3.878;2022-07-22T05:55:07;10.80;;;4.47;;
23282;SDS011;11810;51.178;3.878;2022-07-22T05:57:34;11.32;;;4.65;;
23282;SDS011;11810;51.178;3.878;2022-07-22T05:59:59;12.43;;;4.30;;
23282;SDS011;11810;51.178;3.878;2022-07-22T06:02:25;14.77;;;3.92;;
23282;SDS011;11810;51.178;3.878;2022-07-22T06:04:51;11.25;;;3.67;;
23282;SDS011;11810;51.178;3.878;2022-07-22T06:07:18;6.88;;;3.30;;
23282;SDS011;11810;51.178;3.878;2022-07-22T06:09:44;10.00;;;3.60;;
23282;SDS011;11810;51.178;3.878;2022-07-22T06:12:10;9.90;;;3.65;;
23282;SDS011;11810;51.178;3.878;2022-07-22T06:14:36;15.65;;;2.88;;
23282;SDS011;11810;51.178;3.878;2022-07-22T06:17:02;10.27;;;3.40;;
23282;SDS011;11810;51.178;3.878;2022-07-22T06:19:28;12.00;;;2.95;;
23282;SDS011;11810;51.178;3.878;2022-07-22T06:21:54;11.23;;;3.55;;
23282;SDS011;11810;51.178;3.878;2022-07-22T06:24:21;8.50;;;2.65;;
23282;SDS011;11810;51.178;3.878;2022-07-22T06:26:47;10.05;;;3.00;;
23282;SDS011;11810;51.178;3.878;2022-07-22T06:29:13;11.25;;;3.15;;
23282;SDS011;11810;51.178;3.878;2022-07-22T06:31:39;10.85;;;3.20;;
23282;SDS011;11810;51.178;3.878;2022-07-22T06:34:05;8.18;;;2.95;;
23282;SDS011;11810;51.178;3.878;2022-07-22T06:36:32;9.27;;;3.20;;
23282;SDS011;11810;51.178;3.878;2022-07-22T06:38:58;8.30;;;3.22;;
23282;SDS011;11810;51.178;3.878;2022-07-22T06:41:24;8.48;;;2.60;;
23282;SDS011;11810;51.178;3.878;2022-07-22T06:43:51;8.18;;;2.38;;
23282;SDS011;11810;51.178;3.878;2022-07-22T06:46:17;9.15;;;2.35;;
23282;SDS011;11810;51.178;3.878;2022-07-22T06:48:43;9.85;;;2.42;;
23282;SDS011;11810;51.178;3.878;2022-07-22T06:51:09;6.82;;;2.30;;
23282;SDS011;11810;51.178;3.878;2022-07-22T06:53:35;7.82;;;1.67;;
23282;SDS011;11810;51.178;3.878;2022-07-22T06:56:01;5.32;;;2.13;;
23282;SDS011;11810;51.178;3.878;2022-07-22T06:58:27;12.73;;;2.28;;
23282;SDS011;11810;51.178;3.878;2022-07-22T07:00:53;11.15;;;2.30;;
23282;SDS011;11810;51.178;3.878;2022-07-22T07:03:19;8.85;;;1.92;;
23282;SDS011;11810;51.178;3.878;2022-07-22T07:05:45;6.82;;;2.00;;
23282;SDS011;11810;51.178;3.878;2022-07-22T07:08:11;5.97;;;2.13;;
23282;SDS011;11810;51.178;3.878;2022-07-22T07:10:37;6.10;;;1.85;;
23282;SDS011;11810;51.178;3.878;2022-07-22T07:13:03;14.05;;;2.35;;
23282;SDS011;11810;51.178;3.878;2022-07-22T07:15:29;12.13;;;2.65;;
23282;SDS011;11810;51.178;3.878;2022-07-22T07:17:55;10.57;;;1.90;;
23282;SDS011;11810;51.178;3.878;2022-07-22T07:20:22;5.43;;;2.08;;
23282;SDS011;11810;51.178;3.878;2022-07-22T07:22:48;6.55;;;1.60;;
23282;SDS011;11810;51.178;3.878;2022-07-22T07:25:15;4.95;;;2.03;;
23282;SDS011;11810;51.178;3.878;2022-07-22T07:27:41;4.57;;;2.10;;
23282;SDS011;11810;51.178;3.878;2022-07-22T07:30:07;7.22;;;1.65;;
23282;SDS011;11810;51.178;3.878;2022-07-22T07:32:36;6.47;;;1.67;;
23282;SDS011;11810;51.178;3.878;2022-07-22T07:35:03;5.95;;;2.03;;
23282;SDS011;11810;51.178;3.878;2022-07-22T07:37:30;8.40;;;2.25;;
23282;SDS011;11810;51.178;3.878;2022-07-22T07:39:56;8.45;;;2.13;;
23282;SDS011;11810;51.178;3.878;2022-07-22T07:42:23;10.32;;;2.17;;
23282;SDS011;11810;51.178;3.878;2022-07-22T07:44:49;7.57;;;1.85;;
23282;SDS011;11810;51.178;3.878;2022-07-22T07:47:16;7.82;;;2.15;;
23282;SDS011;11810;51.178;3.878;2022-07-22T07:49:44;8.85;;;2.42;;
23282;SDS011;11810;51.178;3.878;2022-07-22T07:52:11;7.38;;;2.50;;
23282;SDS011;11810;51.178;3.878;2022-07-22T07:54:40;12.40;;;3.03;;
23282;SDS011;11810;51.178;3.878;2022-07-22T07:57:07;10.07;;;2.63;;
23282;SDS011;11810;51.178;3.878;2022-07-22T07:59:35;12.63;;;2.72;;
23282;SDS011;11810;51.178;3.878;2022-07-22T08:02:02;8.38;;;3.13;;
23282;SDS011;11810;51.178;3.878;2022-07-22T08:04:29;10.32;;;2.50;;
23282;SDS011;11810;51.178;3.878;2022-07-22T08:06:55;10.30;;;2.65;;
23282;SDS011;11810;51.178;3.878;2022-07-22T08:09:22;6.57;;;2.70;;
23282;SDS011;11810;51.178;3.878;2022-07-22T08:11:48;12.10;;;2.80;;
23282;SDS011;11810;51.178;3.878;2022-07-22T08:14:14;12.50;;;2.72;;
23282;SDS011;11810;51.178;3.878;2022-07-22T08:16:40;14.27;;;3.10;;
23282;SDS011;11810;51.178;3.878;2022-07-22T08:19:05;11.50;;;2.92;;
23282;SDS011;11810;51.178;3.878;2022-07-22T08:21:31;14.75;;;2.90;;
23282;SDS011;11810;51.178;3.878;2022-07-22T08:23:57;9.40;;;3.28;;
23282;SDS011;11810;51.178;3.878;2022-07-22T08:26:23;10.23;;;3.22;;
23282;SDS011;11810;51.178;3.878;2022-07-22T08:28:50;14.10;;;3.42;;
23282;SDS011;11810;51.178;3.878;2022-07-22T08:31:16;9.68;;;3.47;;
23282;SDS011;11810;51.178;3.878;2022-07-22T08:33:41;13.13;;;3.35;;
23282;SDS011;11810;51.178;3.878;2022-07-22T08:36:07;8.93;;;2.88;;
23282;SDS011;11810;51.178;3.878;2022-07-22T08:38:34;8.10;;;2.85;;
23282;SDS011;11810;51.178;3.878;2022-07-22T08:41:00;11.75;;;3.17;;
23282;SDS011;11810;51.178;3.878;2022-07-22T08:43:28;8.73;;;3.28;;
23282;SDS011;11810;51.178;3.878;2022-07-22T08:45:56;9.50;;;2.92;;
23282;SDS011;11810;51.178;3.878;2022-07-22T08:48:23;9.55;;;3.40;;
23282;SDS011;11810;51.178;3.878;2022-07-22T08:50:49;15.45;;;3.50;;
23282;SDS011;11810;51.178;3.878;2022-07-22T08:53:15;10.35;;;2.85;;
23282;SDS011;11810;51.178;3.878;2022-07-22T08:55:45;6.18;;;3.25;;
23282;SDS011;11810;51.178;3.878;2022-07-22T08:58:12;9.88;;;3.30;;
23282;SDS011;11810;51.178;3.878;2022-07-22T09:00:38;12.52;;;3.88;;
23282;SDS011;11810;51.178;3.878;2022-07-22T09:03:20;11.65;;;3.85;;
23282;SDS011;11810;51.178;3.878;2022-07-22T09:05:52;18.02;;;3.75;;
23282;SDS011;11810;51.178;3.878;2022-07-22T09:08:19;11.43;;;3.97;;
23282;SDS011;11810;51.178;3.878;2022-07-22T09:10:46;14.15;;;4.05;;
23282;SDS011;11810;51.178;3.878;2022-07-22T09:13:12;8.27;;;4.15;;
23282;SDS011;11810;51.178;3.878;2022-07-22T09:15:50;8.75;;;3.53;;
23282;SDS011;11810;51.178;3.878;2022-07-22T09:18:18;17.15;;;4.32;;
23282;SDS011;11810;51.178;3.878;2022-07-22T09:20:44;10.77;;;4.90;;
23282;SDS011;11810;51.178;3.878;2022-07-22T09:25:42;9.75;;;4.10;;
23282;SDS011;11810;51.178;3.878;2022-07-22T09:30:37;13.00;;;3.85;;
23282;SDS011;11810;51.178;3.878;2022-07-22T09:33:18;14.23;;;4.22;;
23282;SDS011;11810;51.178;3.878;2022-07-22T09:35:45;14.30;;;4.13;;
23282;SDS011;11810;51.178;3.878;2022-07-22T09:38:13;8.88;;;3.30;;
23282;SDS011;11810;51.178;3.878;2022-07-22T09:40:44;7.13;;;3.45;;
23282;SDS011;11810;51.178;3.878;2022-07-22T09:43:12;9.20;;;3.85;;
23282;SDS011;11810;51.178;3.878;2022-07-22T09:48:13;13.77;;;3.63;;
23282;SDS011;11810;51.178;3.878;2022-07-22T09:50:42;11.27;;;3.75;;
23282;SDS011;11810;51.178;3.878;2022-07-22T09:53:08;9.70;;;4.45;;
23282;SDS011;11810;51.178;3.878;2022-07-22T09:55:34;9.05;;;4.20;;
23282;SDS011;11810;51.178;3.878;2022-07-22T09:58:04;8.35;;;3.38;;
23282;SDS011;11810;51.178;3.878;2022-07-22T10:00:32;10.40;;;3.10;;
23282;SDS011;11810;51.178;3.878;2022-07-22T10:03:00;8.75;;;3.35;;
23282;SDS011;11810;51.178;3.878;2022-07-22T10:05:29;10.23;;;3.72;;
23282;SDS011;11810;51.178;3.878;2022-07-22T10:07:56;10.40;;;4.82;;
23282;SDS011;11810;51.178;3.878;2022-07-22T10:10:25;12.07;;;5.40;;
23282;SDS011;11810;51.178;3.878;2022-07-22T10:12:53;7.65;;;3.80;;
23282;SDS011;11810;51.178;3.878;2022-07-22T10:15:20;8.88;;;4.35;;
23282;SDS011;11810;51.178;3.878;2022-07-22T10:17:51;9.85;;;4.53;;
23282;SDS011;11810;51.178;3.878;2022-07-22T10:20:22;8.75;;;3.53;;
23282;SDS011;11810;51.178;3.878;2022-07-22T10:22:51;9.38;;;3.97;;
23282;SDS011;11810;51.178;3.878;2022-07-22T10:25:31;12.15;;;4.05;;
23282;SDS011;11810;51.178;3.878;2022-07-22T10:28:21;7.35;;;3.13;;
23282;SDS011;11810;51.178;3.878;2022-07-22T10:33:53;7.55;;;3.90;;
23282;SDS011;11810;51.178;3.878;2022-07-22T10:36:34;6.88;;;2.90;;
23282;SDS011;11810;51.178;3.878;2022-07-22T10:39:12;8.40;;;3.15;;
23282;SDS011;11810;51.178;3.878;2022-07-22T10:41:43;8.90;;;3.50;;
23282;SDS011;11810;51.178;3.878;2022-07-22T10:44:11;6.60;;;3.47;;
23282;SDS011;11810;51.178;3.878;2022-07-22T10:49:20;7.43;;;3.30;;
23282;SDS011;11810;51.178;3.878;2022-07-22T10:54:33;8.65;;;3.35;;
23282;SDS011;11810;51.178;3.878;2022-07-22T10:57:40;5.97;;;2.95;;
23282;SDS011;11810;51.178;3.878;2022-07-22T11:00:05;8.20;;;3.47;;
23282;SDS011;11810;51.178;3.878;2022-07-22T11:02:33;7.78;;;3.13;;
23282;SDS011;11810;51.178;3.878;2022-07-22T11:05:01;7.18;;;2.88;;
23282;SDS011;11810;51.178;3.878;2022-07-22T11:07:28;7.60;;;3.10;;
23282;SDS011;11810;51.178;3.878;2022-07-22T11:10:17;8.23;;;2.92;;
23282;SDS011;11810;51.178;3.878;2022-07-22T11:12:45;6.93;;;3.15;;
23282;SDS011;11810;51.178;3.878;2022-07-22T11:15:12;8.27;;;2.67;;
23282;SDS011;11810;51.178;3.878;2022-07-22T11:17:39;7.68;;;3.00;;
23282;SDS011;11810;51.178;3.878;2022-07-22T11:20:06;9.07;;;3.60;;
23282;SDS011;11810;51.178;3.878;2022-07-22T11:22:34;6.90;;;3.38;;
23282;SDS011;11810;51.178;3.878;2022-07-22T11:25:05;11.73;;;3.95;;
23282;SDS011;11810;51.178;3.878;2022-07-22T11:27:32;5.55;;;2.70;;
23282;SDS011;11810;51.178;3.878;2022-07-22T11:29:58;9.45;;;3.70;;
23282;SDS011;11810;51.178;3.878;2022-07-22T11:32:25;8.80;;;3.65;;
23282;SDS011;11810;51.178;3.878;2022-07-22T11:34:56;8.68;;;2.97;;
23282;SDS011;11810;51.178;3.878;2022-07-22T11:37:24;8.45;;;3.22;;
23282;SDS011;11810;51.178;3.878;2022-07-22T11:39:58;8.57;;;3.67;;
23282;SDS011;11810;51.178;3.878;2022-07-22T11:42:26;8.02;;;3.50;;
23282;SDS011;11810;51.178;3.878;2022-07-22T11:44:52;5.57;;;3.28;;
23282;SDS011;11810;51.178;3.878;2022-07-22T11:47:19;7.07;;;3.30;;
23282;SDS011;11810;51.178;3.878;2022-07-22T11:49:45;6.75;;;3.58;;
23282;SDS011;11810;51.178;3.878;2022-07-22T11:52:15;10.15;;;3.65;;
23282;SDS011;11810;51.178;3.878;2022-07-22T11:54:42;7.00;;;2.60;;
23282;SDS011;11810;51.178;3.878;2022-07-22T11:57:09;9.85;;;2.88;;
23282;SDS011;11810;51.178;3.878;2022-07-22T11:59:36;8.27;;;3.08;;
23282;SDS011;11810;51.178;3.878;2022-07-22T12:02:03;9.32;;;3.28;;
23282;SDS011;11810;51.178;3.878;2022-07-22T12:04:31;5.93;;;2.75;;
23282;SDS011;11810;51.178;3.878;2022-07-22T12:06:58;6.72;;;2.95;;
23282;SDS011;11810;51.178;3.878;2022-07-22T12:09:31;9.68;;;3.83;;
23282;SDS011;11810;51.178;3.878;2022-07-22T12:12:02;7.32;;;3.28;;
23282;SDS011;11810;51.178;3.878;2022-07-22T12:14:29;6.80;;;3.22;;
23282;SDS011;11810;51.178;3.878;2022-07-22T12:19:33;4.53;;;2.88;;
23282;SDS011;11810;51.178;3.878;2022-07-22T12:22:07;7.60;;;3.22;;
23282;SDS011;11810;51.178;3.878;2022-07-22T12:24:44;7.03;;;3.40;;
23282;SDS011;11810;51.178;3.878;2022-07-22T12:32:06;8.18;;;3.80;;
23282;SDS011;11810;51.178;3.878;2022-07-22T12:34:40;7.10;;;3.58;;
23282;SDS011;11810;51.178;3.878;2022-07-22T12:42:30;11.35;;;3.97;;
23282;SDS011;11810;51.178;3.878;2022-07-22T12:47:38;11.85;;;4.47;;
23282;SDS011;11810;51.178;3.878;2022-07-22T12:52:43;9.95;;;3.92;;
23282;SDS011;11810;51.178;3.878;2022-07-22T12:55:09;11.63;;;4.65;;
23282;SDS011;11810;51.178;3.878;2022-07-22T12:57:35;8.15;;;4.18;;
23282;SDS011;11810;51.178;3.878;2022-07-22T13:00:02;12.05;;;5.03;;
23282;SDS011;11810;51.178;3.878;2022-07-22T13:02:28;10.93;;;5.75;;
23282;SDS011;11810;51.178;3.878;2022-07-22T13:04:55;10.70;;;5.38;;
23282;SDS011;11810;51.178;3.878;2022-07-22T13:07:21;10.15;;;5.15;;
23282;SDS011;11810;51.178;3.878;2022-07-22T13:09:47;11.30;;;5.53;;
23282;SDS011;11810;51.178;3.878;2022-07-22T13:12:12;12.40;;;4.57;;
23282;SDS011;11810;51.178;3.878;2022-07-22T13:14:38;10.15;;;5.80;;
23282;SDS011;11810;51.178;3.878;2022-07-22T13:17:04;10.80;;;5.55;;
23282;SDS011;11810;51.178;3.878;2022-07-22T13:19:30;7.20;;;5.60;;
23282;SDS011;11810;51.178;3.878;2022-07-22T13:21:56;10.65;;;4.90;;
23282;SDS011;11810;51.178;3.878;2022-07-22T13:24:22;6.38;;;4.22;;
23282;SDS011;11810;51.178;3.878;2022-07-22T13:26:48;8.02;;;4.35;;
23282;SDS011;11810;51.178;3.878;2022-07-22T13:29:14;7.78;;;4.97;;
23282;SDS011;11810;51.178;3.878;2022-07-22T13:31:41;11.38;;;5.38;;
23282;SDS011;11810;51.178;3.878;2022-07-22T13:34:07;10.88;;;6.28;;
23282;SDS011;11810;51.178;3.878;2022-07-22T13:36:33;8.77;;;5.40;;
23282;SDS011;11810;51.178;3.878;2022-07-22T13:38:59;6.72;;;5.22;;
23282;SDS011;11810;51.178;3.878;2022-07-22T13:41:27;7.72;;;5.22;;
23282;SDS011;11810;51.178;3.878;2022-07-22T13:43:53;7.68;;;5.47;;
23282;SDS011;11810;51.178;3.878;2022-07-22T13:46:19;9.82;;;6.13;;
23282;SDS011;11810;51.178;3.878;2022-07-22T13:48:45;8.60;;;6.43;;
23282;SDS011;11810;51.178;3.878;2022-07-22T13:51:11;10.35;;;5.60;;
23282;SDS011;11810;51.178;3.878;2022-07-22T13:53:39;11.30;;;6.25;;
23282;SDS011;11810;51.178;3.878;2022-07-22T13:56:06;9.88;;;6.95;;
23282;SDS011;11810;51.178;3.878;2022-07-22T13:58:34;8.07;;;5.95;;
23282;SDS011;11810;51.178;3.878;2022-07-22T14:01:00;11.40;;;7.55;;
23282;SDS011;11810;51.178;3.878;2022-07-22T14:03:27;9.82;;;6.95;;
23282;SDS011;11810;51.178;3.878;2022-07-22T14:05:54;11.25;;;7.18;;
23282;SDS011;11810;51.178;3.878;2022-07-22T14:08:20;8.50;;;6.78;;
23282;SDS011;11810;51.178;3.878;2022-07-22T14:10:46;10.05;;;6.28;;
23282;SDS011;11810;51.178;3.878;2022-07-22T14:13:12;13.40;;;6.75;;
23282;SDS011;11810;51.178;3.878;2022-07-22T14:15:38;7.97;;;6.30;;
23282;SDS011;11810;51.178;3.878;2022-07-22T14:18:03;8.73;;;6.25;;
23282;SDS011;11810;51.178;3.878;2022-07-22T14:20:32;16.27;;;7.68;;
23282;SDS011;11810;51.178;3.878;2022-07-22T14:22:59;11.20;;;7.82;;
23282;SDS011;11810;51.178;3.878;2022-07-22T14:25:26;10.52;;;6.65;;
23282;SDS011;11810;51.178;3.878;2022-07-22T14:27:53;12.50;;;7.43;;
23282;SDS011;11810;51.178;3.878;2022-07-22T14:30:19;12.80;;;6.85;;
23282;SDS011;11810;51.178;3.878;2022-07-22T14:32:45;9.32;;;6.80;;
23282;SDS011;11810;51.178;3.878;2022-07-22T14:35:11;7.47;;;6.63;;
23282;SDS011;11810;51.178;3.878;2022-07-22T14:37:37;8.43;;;6.75;;
23282;SDS011;11810;51.178;3.878;2022-07-22T14:40:03;8.55;;;6.55;;
23282;SDS011;11810;51.178;3.878;2022-07-22T14:42:29;10.55;;;7.28;;
23282;SDS011;11810;51.178;3.878;2022-07-22T14:44:55;11.13;;;7.35;;
23282;SDS011;11810;51.178;3.878;2022-07-22T14:47:21;10.40;;;7.45;;
23282;SDS011;11810;51.178;3.878;2022-07-22T14:49:47;12.80;;;7.68;;
23282;SDS011;11810;51.178;3.878;2022-07-22T14:52:13;11.55;;;8.00;;
23282;SDS011;11810;51.178;3.878;2022-07-22T14:54:39;13.98;;;8.18;;
23282;SDS011;11810;51.178;3.878;2022-07-22T14:57:05;13.13;;;7.65;;
23282;SDS011;11810;51.178;3.878;2022-07-22T14:59:31;14.73;;;7.78;;
23282;SDS011;11810;51.178;3.878;2022-07-22T15:01:57;14.25;;;8.38;;
23282;SDS011;11810;51.178;3.878;2022-07-22T15:04:23;10.00;;;7.78;;
23282;SDS011;11810;51.178;3.878;2022-07-22T15:06:48;13.55;;;8.98;;
23282;SDS011;11810;51.178;3.878;2022-07-22T15:09:15;12.25;;;8.15;;
23282;SDS011;11810;51.178;3.878;2022-07-22T15:11:41;13.68;;;9.00;;
23282;SDS011;11810;51.178;3.878;2022-07-22T15:14:07;11.57;;;8.77;;